Chamberlain, South Dakota
Current Conditions -  °F | °C
As of 8:15 PM on Friday 24 Oct 2014 (Local Time) from K9V9 Reporting Station
Clear Clear  
Wind Chill: 53°   Ceiling: Unl
Heat Index: 53°   Visibility: 10mi
Dew Point: 34°   Wind: 0mph
Humidity: 49%   Direction: NA
Pressure: 29.98"   Gusts: NA
Location:  43.79°N, 99.31°W
Report Text: K9V9 250115Z AUTO 00000KT 10SM CLR 12/01 A2998 RMK AO2 T01170013
Loading
Personal Weather Stations






























Interactive Weather Map
Tropical Storm Tracking
New forecast layout! Learn more

10-Day Weather Forecast

Advertisements
Track Severe Weather on mobile